Time;durP1;ratioP1;P1;durP2;ratioP2;P2;SDS_P1;SDS_P2;PMS_P1;PMS_P2;Temp;Humidity;BMP_temperature;BMP_pressure;BME280_temperature;BME280_humidity;BME280_pressure;Samples;Min_cycle;Max_cycle;Signal;HPM_P1;HPM_P2
2021/09/21 00:01:21;;;;;;;11.93;8.87;;;;;;;13.15;88.03;154736.72;5053594;28;20488;-75
2021/09/21 00:03:57;;;;;;;10.77;8.43;;;;;;;13.18;87.48;154745.81;5054015;28;20450;-75
2021/09/21 00:06:32;;;;;;;13.53;9.30;;;;;;;13.20;87.68;154749.69;5072264;28;20448;-75
2021/09/21 00:09:09;;;;;;;10.33;8.20;;;;;;;13.07;87.80;154717.25;5071971;28;20644;-75
2021/09/21 00:11:44;;;;;;;10.20;7.50;;;;;;;13.02;91.89;154704.25;5051857;28;20477;-75
2021/09/21 00:14:20;;;;;;;10.53;9.10;;;;;;;12.94;88.67;154683.50;5052912;28;20450;-75
2021/09/21 00:16:55;;;;;;;8.47;7.57;;;;;;;12.99;88.40;154696.47;5054006;28;20453;-75
2021/09/21 00:19:33;;;;;;;8.80;7.43;;;;;;;12.97;88.68;154691.28;5072279;28;20470;-75
2021/09/21 00:22:08;;;;;;;10.47;8.53;;;;;;;12.95;89.26;154686.06;5065483;28;20448;-75
2021/09/21 00:24:45;;;;;;;9.10;7.80;;;;;;;12.97;89.04;154689.97;5073001;28;20449;-75
2021/09/21 00:27:20;;;;;;;10.03;8.17;;;;;;;13.08;88.61;154719.81;5054356;28;20449;-75
2021/09/21 00:29:56;;;;;;;9.97;8.97;;;;;;;13.03;88.11;154706.81;5055272;28;20450;-75
2021/09/21 00:32:33;;;;;;;9.80;8.37;;;;;;;13.01;88.64;154701.63;5054037;28;20445;-75
2021/09/21 00:35:09;;;;;;;9.53;8.57;;;;;;;13.09;88.15;154722.44;5042844;28;20441;-75
2021/09/21 00:37:44;;;;;;;10.90;9.13;;;;;;;13.04;88.02;154709.44;5033739;28;20489;-75
2021/09/21 00:40:21;;;;;;;10.50;9.33;;;;;;;12.96;89.04;154688.66;5052647;28;20972;-75
2021/09/21 00:43:01;;;;;;;9.83;7.97;;;;;;;12.92;91.69;154678.25;5071561;28;20498;-75
2021/09/21 00:45:37;;;;;;;10.90;8.83;;;;;;;12.88;90.29;154667.91;5043491;28;20445;-75
2021/09/21 00:48:13;;;;;;;11.00;8.27;;;;;;;12.91;90.08;154674.41;5071694;28;20508;-75
2021/09/21 00:50:50;;;;;;;11.50;8.43;;;;;;;13.01;88.82;154700.31;5052785;28;20536;-75
2021/09/21 00:53:26;;;;;;;10.23;8.50;;;;;;;13.03;88.74;154706.81;5053816;28;20457;-75
2021/09/21 00:56:03;;;;;;;9.20;8.00;;;;;;;13.05;88.41;154710.72;5051099;28;20441;-75
2021/09/21 00:58:39;;;;;;;9.83;7.87;;;;;;;13.02;88.54;154704.25;5065383;28;20508;-75
2021/09/21 01:01:14;;;;;;;10.07;9.07;;;;;;;13.05;89.04;154710.72;5075210;28;20442;-75
2021/09/21 01:03:49;;;;;;;13.47;8.93;;;;;;;12.99;89.27;154696.47;5058001;28;20888;-75
2021/09/21 01:06:25;;;;;;;11.00;9.90;;;;;;;12.98;89.63;154692.53;5053790;28;20454;-75
2021/09/21 01:09:00;;;;;;;19.30;8.30;;;;;;;12.91;90.03;154674.41;5074038;28;20444;-75
2021/09/21 01:11:48;;;;;;;11.30;9.27;;;;;;;12.90;90.57;154673.09;5056848;28;20442;-75
2021/09/21 01:14:25;;;;;;;10.57;8.00;;;;;;;12.84;90.69;154657.50;5053473;28;20452;-75
2021/09/21 01:17:00;;;;;;;16.10;9.20;;;;;;;12.82;91.41;154652.31;5075139;28;20452;-75
2021/09/21 01:19:35;;;;;;;10.80;9.60;;;;;;;12.87;91.25;154664.03;5056750;28;20908;-75
2021/09/21 01:22:13;;;;;;;13.03;10.37;;;;;;;12.87;91.37;154664.03;5070600;28;20444;-75
2021/09/21 01:24:49;;;;;;;10.80;9.70;;;;;;;12.80;91.48;154647.16;5075979;28;20481;-75
2021/09/21 01:27:24;;;;;;;13.23;9.47;;;;;;;12.77;91.85;154640.66;5057282;28;20441;-75
2021/09/21 01:30:00;;;;;;;12.13;9.97;;;;;;;12.75;92.50;154635.50;5057049;28;20477;-75
2021/09/21 01:32:35;;;;;;;11.23;9.40;;;;;;;12.78;92.65;154643.28;5052277;28;20448;-75
2021/09/21 01:35:12;;;;;;;11.23;9.07;;;;;;;12.88;92.38;154667.91;5057015;28;20563;-75
2021/09/21 01:37:51;;;;;;;10.50;8.70;;;;;;;12.82;92.55;154652.31;5056107;28;20814;-75
2021/09/21 01:40:26;;;;;;;11.50;9.70;;;;;;;12.76;92.96;154636.81;5074631;28;20814;-75
2021/09/21 01:43:02;;;;;;;10.53;8.73;;;;;;;12.74;94.37;154631.56;5074551;28;20524;-75
2021/09/21 01:45:38;;;;;;;11.93;10.30;;;;;;;12.71;93.76;154623.78;5075183;28;20437;-75
2021/09/21 01:48:13;;;;;;;10.17;9.00;;;;;;;12.71;94.30;154623.78;5056496;28;20459;-75
2021/09/21 01:50:52;;;;;;;13.33;10.33;;;;;;;12.70;93.62;154621.22;5056981;28;20830;-75
2021/09/21 01:53:39;;;;;;;13.80;10.00;;;;;;;12.76;93.04;154636.81;5055905;28;20535;-75
2021/09/21 01:59:08;;;;;;;13.83;8.90;;;;;;;12.66;93.97;154610.81;5056514;28;20477;-74
2021/09/21 02:01:43;;;;;;;12.07;10.87;;;;;;;12.64;95.01;154606.94;5074111;28;20446;-74
2021/09/21 02:04:19;;;;;;;10.50;8.60;;;;;;;12.62;94.27;154600.47;5056998;28;20456;-75
2021/09/21 02:06:55;;;;;;;10.90;9.27;;;;;;;12.61;94.89;154599.16;5056637;28;20536;-75
2021/09/21 02:09:32;;;;;;;11.83;9.13;;;;;;;12.58;94.29;154590.06;5055772;28;20485;-75
2021/09/21 02:12:08;;;;;;;13.20;10.23;;;;;;;12.62;94.00;154601.78;5040338;28;20436;-75
2021/09/21 02:14:44;;;;;;;12.30;10.37;;;;;;;12.72;92.98;154627.72;5052273;28;20464;-75
2021/09/21 02:17:19;;;;;;;10.73;8.30;;;;;;;12.65;93.14;154609.56;5070473;28;20442;-75
2021/09/21 02:19:55;;;;;;;10.40;9.30;;;;;;;12.59;93.36;154592.69;5056389;28;20476;-75
2021/09/21 02:22:30;;;;;;;12.47;10.43;;;;;;;12.58;93.43;154591.38;5081706;28;21138;-75
2021/09/21 02:25:08;;;;;;;9.70;8.27;;;;;;;12.57;93.12;154587.50;5053912;28;20521;-75
2021/09/21 02:27:44;;;;;;;12.53;9.70;;;;;;;12.67;92.21;154614.75;5037219;28;20931;-75
2021/09/21 02:30:19;;;;;;;11.90;9.60;;;;;;;12.58;92.62;154590.06;5053407;28;20449;-75
2021/09/21 02:32:55;;;;;;;11.80;9.57;;;;;;;12.56;93.90;154584.91;5058768;28;20827;-75
2021/09/21 02:35:31;;;;;;;9.70;8.50;;;;;;;12.57;96.29;154587.50;5043773;28;20453;-75
2021/09/21 02:38:06;;;;;;;10.60;8.63;;;;;;;12.55;97.41;154583.59;5070883;28;20474;-75
2021/09/21 02:40:43;;;;;;;9.80;8.60;;;;;;;12.51;95.68;154571.94;5036330;28;20476;-75
2021/09/21 02:43:18;;;;;;;14.37;10.27;;;;;;;12.49;95.02;154568.06;5043314;28;20954;-75
2021/09/21 02:45:54;;;;;;;9.77;8.40;;;;;;;12.49;95.33;154568.06;5053244;28;20430;-75
2021/09/21 02:48:30;;;;;;;9.87;8.87;;;;;;;12.49;95.99;154566.75;5051481;28;20459;-75
2021/09/21 02:51:06;;;;;;;9.30;8.40;;;;;;;12.57;93.52;154587.50;5055417;28;20476;-75
2021/09/21 02:53:42;;;;;;;13.40;9.57;;;;;;;12.56;93.31;154586.19;5053962;28;20459;-75
2021/09/21 02:56:19;;;;;;;10.60;9.40;;;;;;;12.56;93.23;154584.91;5055522;28;20454;-74
2021/09/21 02:58:54;;;;;;;11.30;8.90;;;;;;;12.48;93.67;154565.44;5049017;28;20880;-75
2021/09/21 03:01:30;;;;;;;11.07;8.50;;;;;;;12.48;93.78;154565.44;5052725;28;20959;-75
2021/09/21 03:04:11;;;;;;;10.97;9.70;;;;;;;12.55;93.23;154582.34;5055555;28;20446;-75
2021/09/21 03:06:50;;;;;;;10.40;8.67;;;;;;;12.56;92.82;154584.91;5054997;28;20429;-75
2021/09/21 03:09:37;;;;;;;10.07;9.03;;;;;;;12.51;93.05;154571.94;5072093;28;20449;-74
2021/09/21 03:12:22;;;;;;;9.70;8.53;;;;;;;12.49;92.99;154566.75;5072940;28;20449;-75
2021/09/21 03:17:51;;;;;;;11.40;9.93;;;;;;;12.44;93.94;154553.78;5054687;28;20437;-75
2021/09/21 03:20:27;;;;;;;10.37;8.63;;;;;;;12.42;94.07;154548.56;5068323;28;20470;-75
2021/09/21 03:23:02;;;;;;;10.80;8.80;;;;;;;12.41;94.92;154546.00;5053778;28;20868;-75
2021/09/21 03:25:38;;;;;;;10.27;8.57;;;;;;;12.43;94.70;154551.19;5055245;28;20930;-75
2021/09/21 03:28:15;;;;;;;11.23;9.47;;;;;;;12.45;94.74;154556.34;5054891;28;20436;-75
2021/09/21 03:30:50;;;;;;;11.27;9.30;;;;;;;12.42;95.19;154548.56;5045549;28;20482;-75
2021/09/21 03:33:26;;;;;;;12.93;9.70;;;;;;;12.55;93.49;154582.34;5054687;28;20453;-75
2021/09/21 03:36:02;;;;;;;10.30;9.20;;;;;;;12.49;93.76;154566.75;5053325;28;20417;-74
2021/09/21 03:38:37;;;;;;;10.63;9.33;;;;;;;12.48;93.94;154565.44;5026837;28;20542;-75
2021/09/21 03:41:13;;;;;;;11.67;9.30;;;;;;;12.40;94.33;154544.69;5071925;28;20454;-75
2021/09/21 03:43:50;;;;;;;11.20;9.90;;;;;;;12.49;92.92;154568.06;5054722;28;20441;-75
2021/09/21 03:46:25;;;;;;;11.57;8.93;;;;;;;12.45;93.11;154556.34;5054925;28;20453;-75
2021/09/21 03:49:01;;;;;;;12.90;10.03;;;;;;;12.41;92.91;154547.31;5071422;28;20470;-75
2021/09/21 03:51:36;;;;;;;9.57;8.43;;;;;;;12.40;93.68;154543.41;5069808;28;20443;-75
2021/09/21 03:54:12;;;;;;;14.83;10.13;;;;;;;12.33;93.86;154525.25;5057923;28;20445;-74
2021/09/21 03:56:47;;;;;;;15.60;10.93;;;;;;;12.32;94.81;154522.66;5072769;28;20425;-74
2021/09/21 03:59:25;;;;;;;10.50;9.40;;;;;;;12.37;94.61;154535.59;5050125;28;20444;-75
2021/09/21 04:02:00;;;;;;;10.77;9.13;;;;;;;12.37;93.74;154535.59;5025043;28;20487;-75
2021/09/21 04:04:36;;;;;;;13.10;9.50;;;;;;;12.31;93.98;154521.34;5054830;28;20874;-75
2021/09/21 04:07:11;;;;;;;12.60;10.43;;;;;;;12.37;94.33;154535.59;5053916;28;20774;-75
2021/09/21 04:09:47;;;;;;;13.17;9.70;;;;;;;12.36;93.71;154533.03;5042562;28;20800;-74
2021/09/21 04:12:23;;;;;;;10.80;9.47;;;;;;;12.28;94.04;154512.31;5052918;28;20444;-74
2021/09/21 04:15:00;;;;;;;12.33;9.40;;;;;;;12.23;94.32;154499.34;5054260;28;20534;-74
2021/09/21 04:17:35;;;;;;;11.73;8.80;;;;;;;12.28;94.03;154513.59;5071995;28;20456;-74
2021/09/21 04:20:11;;;;;;;12.57;10.30;;;;;;;12.29;93.52;154514.84;5053254;28;20478;-75
2021/09/21 04:22:47;;;;;;;11.53;9.70;;;;;;;12.20;94.96;154492.84;5075420;28;20447;-75
2021/09/21 04:25:22;;;;;;;14.40;10.87;;;;;;;12.16;94.90;154482.47;5051161;28;20527;-74
2021/09/21 04:27:57;;;;;;;11.43;9.17;;;;;;;12.08;95.94;154461.72;5025788;28;20452;-74
2021/09/21 04:30:34;;;;;;;13.57;11.10;;;;;;;12.11;95.80;154469.50;5061931;28;20442;-75
2021/09/21 04:33:18;;;;;;;15.93;11.40;;;;;;;12.02;96.12;154447.44;5051864;28;20439;-74
2021/09/21 04:35:54;;;;;;;14.23;10.13;;;;;;;11.99;96.69;154439.66;5040867;28;20538;-75
2021/09/21 04:38:29;;;;;;;12.17;10.13;;;;;;;12.03;96.12;154450.06;5038328;28;20452;-75
2021/09/21 04:41:06;;;;;;;9.73;8.73;;;;;;;12.04;95.67;154451.38;5049450;28;20800;-75
2021/09/21 04:43:41;;;;;;;11.30;9.10;;;;;;;12.15;95.27;154479.91;5071848;28;20480;-74
2021/09/21 04:46:18;;;;;;;10.80;9.37;;;;;;;12.06;95.73;154457.84;5037614;28;20807;-75
2021/09/21 04:48:54;;;;;;;14.20;10.07;;;;;;;11.99;96.04;154439.66;5071155;28;20578;-75
2021/09/21 04:51:30;;;;;;;10.03;8.93;;;;;;;11.90;97.25;154416.38;5049121;28;20789;-74
2021/09/21 04:54:06;;;;;;;13.03;9.10;;;;;;;11.85;97.69;154402.09;5072084;28;20449;-74
2021/09/21 04:56:42;;;;;;;13.20;10.20;;;;;;;11.82;98.15;154394.31;5050653;28;20962;-74
2021/09/21 04:59:17;;;;;;;13.40;11.07;;;;;;;11.83;98.76;154396.94;5069408;28;20446;-74
2021/09/21 05:01:54;;;;;;;12.93;10.80;;;;;;;11.81;98.29;154393.00;5051941;28;20457;-75
2021/09/21 05:04:30;;;;;;;11.77;9.40;;;;;;;11.82;98.77;154395.63;5071696;28;20840;-75
2021/09/21 05:07:05;;;;;;;15.17;11.03;;;;;;;11.78;98.44;154385.22;5071395;28;20463;-75
2021/09/21 05:09:40;;;;;;;13.53;9.80;;;;;;;11.76;98.89;154378.75;5053735;28;20544;-74
2021/09/21 05:12:16;;;;;;;13.60;10.80;;;;;;;11.77;98.93;154382.66;5052839;28;20497;-74
2021/09/21 05:14:52;;;;;;;12.33;10.50;;;;;;;11.74;100.00;154373.59;5049434;28;21028;-75
2021/09/21 05:17:29;;;;;;;14.57;11.57;;;;;;;11.70;99.54;154364.53;5071004;28;20438;-74
2021/09/21 05:20:06;;;;;;;11.70;8.97;;;;;;;11.66;99.56;154354.09;5059520;28;20467;-75
2021/09/21 05:22:42;;;;;;;11.97;9.67;;;;;;;11.67;98.79;154355.41;5056239;28;20448;-75
2021/09/21 05:25:18;;;;;;;14.10;11.60;;;;;;;11.66;99.94;154354.09;5053373;28;20526;-75
2021/09/21 05:27:54;;;;;;;11.87;9.80;;;;;;;11.64;99.17;154348.94;5071050;28;20415;-75
2021/09/21 05:30:29;;;;;;;11.27;9.23;;;;;;;11.63;99.94;154346.31;5052706;28;20887;-75
2021/09/21 05:33:06;;;;;;;11.50;10.03;;;;;;;11.63;99.38;154346.31;5023584;28;20437;-75
2021/09/21 05:35:41;;;;;;;10.60;9.07;;;;;;;11.58;99.13;154333.38;5052785;28;20443;-75
2021/09/21 05:38:17;;;;;;;12.20;9.67;;;;;;;11.61;99.28;154342.44;5054478;28;20436;-75
2021/09/21 05:40:52;;;;;;;11.53;9.80;;;;;;;11.61;97.40;154341.16;5069687;28;20826;-75
2021/09/21 05:43:28;;;;;;;11.40;9.63;;;;;;;11.65;98.63;154351.50;5070519;28;20445;-75
2021/09/21 05:46:04;;;;;;;12.30;9.57;;;;;;;11.63;96.89;154346.31;5056577;28;20455;-75
2021/09/21 05:48:41;;;;;;;11.80;10.00;;;;;;;11.68;96.19;154357.97;5055832;28;20481;-75
2021/09/21 05:51:16;;;;;;;11.53;9.87;;;;;;;11.65;97.72;154350.22;5051778;28;20452;-75
2021/09/21 05:53:52;;;;;;;12.50;9.30;;;;;;;11.74;95.42;154373.59;5053314;28;20463;-75
2021/09/21 05:56:28;;;;;;;12.67;10.50;;;;;;;11.71;96.78;154367.09;5059474;28;20439;-75
2021/09/21 05:59:03;;;;;;;12.10;9.67;;;;;;;11.68;96.17;154357.97;5054494;28;20537;-75
2021/09/21 06:01:38;;;;;;;14.20;12.07;;;;;;;11.72;94.72;154369.72;5054861;28;20883;-81
2021/09/21 06:04:15;;;;;;;11.30;9.80;;;;;;;11.75;94.36;154376.19;5072594;28;20535;-82
2021/09/21 06:06:51;;;;;;;11.67;9.57;;;;;;;11.81;95.96;154391.75;5054939;28;20446;-82
2021/09/21 06:09:26;;;;;;;10.90;9.80;;;;;;;11.95;93.73;154429.31;5056321;28;20462;-82
2021/09/21 06:12:02;;;;;;;14.60;10.50;;;;;;;12.12;92.01;154472.13;5056515;28;20443;-82
2021/09/21 06:14:38;;;;;;;15.00;11.90;;;;;;;12.09;91.69;154465.63;5053380;28;20833;-82
2021/09/21 06:17:13;;;;;;;13.33;9.80;;;;;;;12.12;90.03;154473.41;5054644;28;20814;-82
2021/09/21 06:19:50;;;;;;;13.90;11.47;;;;;;;12.18;91.29;154487.63;5054433;28;20547;-82
2021/09/21 06:22:26;;;;;;;13.60;10.77;;;;;;;12.36;90.28;154533.03;5054031;28;20926;-82
2021/09/21 06:25:02;;;;;;;10.33;8.77;;;;;;;12.52;88.48;154575.78;5053557;28;20455;-82
2021/09/21 06:27:38;;;;;;;12.07;9.73;;;;;;;12.68;87.57;154616.03;5071862;28;20416;-82
2021/09/21 06:30:14;;;;;;;10.20;9.10;;;;;;;12.98;86.08;154692.53;5055267;28;20932;-82
2021/09/21 06:32:50;;;;;;;11.70;10.53;;;;;;;13.02;86.12;154704.25;5056333;28;20436;-82
2021/09/21 06:35:27;;;;;;;12.47;10.30;;;;;;;13.25;84.46;154763.97;5073879;28;20436;-83
2021/09/21 06:38:03;;;;;;;10.40;8.83;;;;;;;13.39;82.90;154799.00;5073921;28;20883;-83
2021/09/21 06:40:38;;;;;;;11.83;9.10;;;;;;;13.52;82.25;154831.44;5070571;28;20468;-83
2021/09/21 06:43:14;;;;;;;10.40;9.07;;;;;;;13.64;81.79;154863.88;5055306;28;20836;-85
2021/09/21 06:45:54;;;;;;;12.13;9.33;;;;;;;13.91;79.78;154932.66;5072988;28;20437;-83
2021/09/21 06:48:30;;;;;;;10.20;9.20;;;;;;;13.76;80.57;154893.75;5051966;28;20446;-83
2021/09/21 06:51:07;;;;;;;14.63;9.37;;;;;;;13.98;79.82;154950.81;5074675;28;20444;-84
2021/09/21 06:53:42;;;;;;;11.10;9.90;;;;;;;13.78;78.81;154898.91;5054688;28;20461;-84
2021/09/21 06:56:18;;;;;;;13.07;10.73;;;;;;;13.73;79.90;154885.94;5072616;28;20422;-82
2021/09/21 06:58:53;;;;;;;12.10;9.07;;;;;;;13.91;80.25;154932.66;5054218;28;21028;-83
2021/09/21 07:01:29;;;;;;;11.80;10.07;;;;;;;14.13;77.92;154988.50;5068824;28;20469;-83
2021/09/21 07:04:05;;;;;;;11.63;9.37;;;;;;;14.18;78.50;155002.78;5048185;28;21035;-83
2021/09/21 07:06:41;;;;;;;13.73;10.03;;;;;;;14.42;77.37;155065.19;5039173;28;20449;-83
2021/09/21 07:09:17;;;;;;;11.37;9.60;;;;;;;14.41;75.79;155062.56;5066576;28;20450;-83
2021/09/21 07:11:53;;;;;;;9.40;8.27;;;;;;;14.47;74.30;155078.16;5053334;28;20949;-84
2021/09/21 07:14:29;;;;;;;11.30;8.83;;;;;;;14.73;73.83;155143.09;5072668;28;20450;-84
2021/09/21 07:17:04;;;;;;;12.43;9.30;;;;;;;14.83;73.90;155169.06;5071307;28;20438;-84
2021/09/21 07:19:41;;;;;;;10.60;9.57;;;;;;;14.87;73.50;155179.47;5036753;28;20546;-84
2021/09/21 07:22:18;;;;;;;12.07;9.50;;;;;;;14.94;72.14;155197.66;5038448;28;20465;-83
2021/09/21 07:24:53;;;;;;;10.17;8.83;;;;;;;15.04;72.88;155223.63;5055517;28;20435;-84
2021/09/21 07:27:29;;;;;;;11.23;9.00;;;;;;;15.09;70.76;155236.66;5053129;28;20459;-83
2021/09/21 07:30:06;;;;;;;10.13;8.77;;;;;;;14.82;71.99;155166.47;5085459;28;20916;-83
2021/09/21 07:32:41;;;;;;;10.93;9.40;;;;;;;14.77;73.18;155153.50;5055839;28;20546;-83
2021/09/21 07:35:17;;;;;;;9.50;8.50;;;;;;;14.54;71.61;155096.31;5072531;28;20451;-83
2021/09/21 07:37:54;;;;;;;10.00;9.03;;;;;;;14.63;72.15;155119.72;5054156;28;20443;-83
2021/09/21 07:40:30;;;;;;;10.33;8.70;;;;;;;14.62;72.27;155117.09;5070902;28;20934;-83
2021/09/21 07:43:07;;;;;;;9.90;8.23;;;;;;;14.59;72.82;155109.31;5071977;28;20787;-83
2021/09/21 07:45:46;;;;;;;9.37;8.37;;;;;;;14.60;73.18;155111.94;5052484;28;20455;-83
2021/09/21 07:48:23;;;;;;;10.10;8.70;;;;;;;14.40;72.31;155059.94;5070158;28;20447;-82
2021/09/21 07:50:59;;;;;;;14.00;8.90;;;;;;;14.14;72.84;154992.38;5066145;28;20930;-83
2021/09/21 07:53:37;;;;;;;14.27;9.97;;;;;;;14.09;75.24;154979.41;5052892;28;20451;-82
2021/09/21 07:56:13;;;;;;;15.20;9.60;;;;;;;14.20;74.75;155006.66;5067232;28;20801;-82
2021/09/21 07:58:50;;;;;;;9.90;8.90;;;;;;;14.16;72.88;154997.59;5070885;28;20454;-83
2021/09/21 08:01:26;;;;;;;11.00;9.60;;;;;;;14.12;72.31;154987.19;5052513;28;20470;-83
2021/09/21 08:04:02;;;;;;;13.53;10.00;;;;;;;14.01;73.09;154958.63;5048637;28;20843;-83
2021/09/21 08:06:38;;;;;;;9.60;8.57;;;;;;;14.04;73.34;154967.72;5052925;28;20812;-82
2021/09/21 08:09:16;;;;;;;11.90;9.50;;;;;;;14.20;73.65;155006.66;5060683;28;20868;-82
2021/09/21 08:11:52;;;;;;;12.33;9.10;;;;;;;14.34;74.12;155043.09;5064321;28;20478;-83
2021/09/21 08:14:29;;;;;;;10.57;9.00;;;;;;;14.32;73.90;155037.91;5053079;28;20976;-82
2021/09/21 08:17:05;;;;;;;12.07;9.47;;;;;;;14.10;72.67;154982.03;5052729;28;20457;-82
2021/09/21 08:19:41;;;;;;;10.73;8.50;;;;;;;14.15;70.45;154995.00;5052890;28;20447;-82
2021/09/21 08:22:18;;;;;;;10.27;8.93;;;;;;;14.07;72.11;154974.22;5051551;28;20569;-82
2021/09/21 08:24:56;;;;;;;12.40;8.97;;;;;;;14.10;73.48;154980.72;5053450;28;20850;-82
2021/09/21 08:27:33;;;;;;;10.33;8.90;;;;;;;14.24;72.33;155018.38;5068625;28;20929;-83
2021/09/21 08:30:10;;;;;;;11.60;9.23;;;;;;;14.14;71.04;154992.38;5061493;28;20438;-82
2021/09/21 08:32:45;;;;;;;9.33;8.20;;;;;;;14.37;70.44;155052.19;5052634;28;20960;-82
2021/09/21 08:35:32;;;;;;;8.73;7.83;;;;;;;14.64;68.46;155122.28;5067240;28;20471;-83
2021/09/21 08:38:08;;;;;;;10.50;7.87;;;;;;;14.78;67.53;155156.06;5068301;28;20517;-85
2021/09/21 08:40:45;;;;;;;8.07;6.43;;;;;;;14.83;65.63;155170.34;5070337;28;20446;-83
2021/09/21 08:43:20;;;;;;;8.20;6.87;;;;;;;14.73;62.13;155143.09;5063948;28;20790;-82
2021/09/21 08:45:55;;;;;;;8.67;7.63;;;;;;;14.77;64.83;155153.50;5050681;28;20794;-82
2021/09/21 08:48:31;;;;;;;7.47;6.77;;;;;;;14.96;64.11;155202.81;5051138;28;20478;-82
2021/09/21 08:51:07;;;;;;;8.33;6.47;;;;;;;14.77;62.87;155154.81;5066171;28;20442;-82
2021/09/21 08:53:42;;;;;;;7.70;6.90;;;;;;;14.95;63.09;155200.25;5059714;28;20855;-82
2021/09/21 08:56:20;;;;;;;7.90;7.20;;;;;;;15.01;63.38;155215.88;5048903;28;20541;-82
2021/09/21 08:58:58;;;;;;;10.43;7.10;;;;;;;14.98;62.34;155208.06;5047906;28;20467;-82
2021/09/21 09:01:40;;;;;;;9.37;7.37;;;;;;;14.97;61.14;155205.44;5068989;28;20471;-82
2021/09/21 09:04:18;;;;;;;7.83;7.03;;;;;;;14.78;61.66;155157.38;5059804;28;20468;-82
2021/09/21 09:06:54;;;;;;;7.97;7.17;;;;;;;15.02;61.92;155218.44;5051431;28;20452;-82
2021/09/21 09:09:32;;;;;;;8.87;7.27;;;;;;;15.02;62.93;155219.75;5066504;28;20782;-82
2021/09/21 09:12:09;;;;;;;8.37;6.93;;;;;;;14.99;63.21;155211.94;5045086;28;20940;-82
2021/09/21 09:14:45;;;;;;;8.20;7.40;;;;;;;14.98;63.27;155209.38;5053963;28;20545;-82
2021/09/21 09:17:21;;;;;;;9.07;7.87;;;;;;;14.96;61.68;155202.81;5031059;28;20462;-82
2021/09/21 09:19:56;;;;;;;9.57;8.10;;;;;;;14.73;61.21;155143.09;5055247;28;20887;-82
2021/09/21 09:22:33;;;;;;;10.10;7.43;;;;;;;14.91;61.81;155189.84;5056996;28;20553;-82
2021/09/21 09:25:13;;;;;;;8.03;7.03;;;;;;;15.09;62.48;155237.91;5057279;28;20564;-82
2021/09/21 09:27:50;;;;;;;8.00;6.80;;;;;;;15.22;61.28;155270.44;5075299;28;20444;-82
2021/09/21 09:30:26;;;;;;;8.60;6.40;;;;;;;15.20;60.04;155265.19;5057189;28;20458;-82
2021/09/21 09:33:03;;;;;;;7.10;6.40;;;;;;;15.35;60.71;155304.22;5036896;28;20448;-82
2021/09/21 09:35:43;;;;;;;7.77;6.60;;;;;;;15.25;58.49;155279.50;5043231;28;20446;-82
2021/09/21 09:38:21;;;;;;;7.27;6.50;;;;;;;15.01;59.02;155215.88;5058224;28;20458;-83
2021/09/21 09:40:58;;;;;;;9.43;7.00;;;;;;;15.08;60.40;155234.03;5054848;28;20451;-82
2021/09/21 09:43:35;;;;;;;8.63;7.73;;;;;;;15.07;59.46;155231.41;5036478;28;20455;-82
2021/09/21 09:46:16;;;;;;;8.10;6.93;;;;;;;15.01;59.17;155217.13;5042495;28;20455;-82
2021/09/21 09:48:57;;;;;;;7.50;6.33;;;;;;;14.82;58.85;155166.47;5071106;28;20969;-82
2021/09/21 09:51:33;;;;;;;7.40;6.30;;;;;;;14.70;60.15;155135.28;5076428;28;20442;-82
2021/09/21 09:54:10;;;;;;;8.17;7.33;;;;;;;14.63;59.48;155119.72;5058968;28;20446;-82
2021/09/21 09:56:46;;;;;;;8.33;7.27;;;;;;;14.57;59.57;155102.81;5057220;28;20543;-82
2021/09/21 09:59:24;;;;;;;8.40;6.80;;;;;;;14.52;61.45;155091.16;5058613;28;20438;-82
2021/09/21 10:02:01;;;;;;;8.93;8.03;;;;;;;14.57;62.04;155104.13;5074903;28;20470;-82
2021/09/21 10:04:38;;;;;;;9.03;7.33;;;;;;;14.68;64.38;155130.09;5075241;28;20455;-82
2021/09/21 10:07:14;;;;;;;7.80;7.00;;;;;;;14.88;63.00;155182.09;5057657;28;20443;-82
2021/09/21 10:09:51;;;;;;;8.80;7.90;;;;;;;14.91;60.22;155189.84;5055860;28;20491;-82
2021/09/21 10:12:27;;;;;;;10.47;8.07;;;;;;;14.72;61.62;155140.50;5057623;28;20933;-82
2021/09/21 10:15:04;;;;;;;7.50;6.70;;;;;;;14.83;61.58;155169.06;5075757;28;20472;-82
2021/09/21 10:17:49;;;;;;;7.83;6.87;;;;;;;14.78;62.41;155156.06;5073752;28;20446;-82
2021/09/21 10:20:34;;;;;;;7.80;7.00;;;;;;;14.88;61.02;155182.09;5053669;28;20479;-82
2021/09/21 10:23:10;;;;;;;7.50;6.70;;;;;;;14.81;60.75;155163.88;5047387;28;21155;-82
2021/09/21 10:25:45;;;;;;;8.70;6.50;;;;;;;14.78;61.14;155156.06;5046943;28;20809;-83
2021/09/21 10:28:21;;;;;;;9.30;7.70;;;;;;;14.79;60.54;155160.00;5029261;28;20458;-82
2021/09/21 10:30:59;;;;;;;9.20;7.50;;;;;;;14.75;59.93;155148.25;5064012;28;20872;-82
2021/09/21 10:33:35;;;;;;;8.47;7.63;;;;;;;14.66;61.37;155124.91;5035605;28;20480;-82
2021/09/21 10:36:17;;;;;;;9.93;7.90;;;;;;;14.77;59.97;155154.81;5074815;28;20529;-82
2021/09/21 10:38:55;;;;;;;9.17;7.27;;;;;;;14.53;65.38;155093.72;5034533;28;21172;-82
2021/09/21 10:41:31;;;;;;;8.30;7.40;;;;;;;14.63;61.71;155118.41;5041239;28;20453;-83
2021/09/21 10:44:08;;;;;;;9.80;7.40;;;;;;;14.87;61.31;155179.47;5056071;28;20462;-82
2021/09/21 10:46:47;;;;;;;7.70;6.90;;;;;;;15.06;61.69;155228.84;5056018;28;21005;-82
2021/09/21 10:49:29;;;;;;;8.40;7.10;;;;;;;15.16;61.54;155256.13;5046900;28;20482;-82
2021/09/21 10:52:06;;;;;;;8.23;7.43;;;;;;;15.29;60.67;155288.63;5073548;28;20526;-82
2021/09/21 10:54:44;;;;;;;8.30;7.40;;;;;;;15.09;60.92;155236.66;5037524;28;20503;-82
2021/09/21 10:57:28;;;;;;;8.53;7.63;;;;;;;15.20;61.55;155266.50;5069831;28;20478;-82
2021/09/21 11:00:06;;;;;;;10.63;8.30;;;;;;;15.27;61.05;155283.44;5073392;28;20485;-82
2021/09/21 11:02:44;;;;;;;9.13;7.23;;;;;;;15.18;61.97;155261.31;5072488;28;20467;-82
2021/09/21 11:05:26;;;;;;;9.87;8.07;;;;;;;15.14;61.54;155249.66;5069504;28;20438;-82
2021/09/21 11:08:03;;;;;;;10.97;8.60;;;;;;;15.16;60.20;155254.81;5056310;28;20450;-82
2021/09/21 11:10:41;;;;;;;12.73;8.40;;;;;;;15.03;60.55;155221.03;5051829;28;20443;-82
2021/09/21 11:13:18;;;;;;;8.27;7.37;;;;;;;15.24;61.27;155275.63;5042612;28;20441;-82
2021/09/21 11:15:58;;;;;;;8.90;7.97;;;;;;;15.37;60.37;155309.41;5051097;28;20442;-82
2021/09/21 11:18:36;;;;;;;7.37;6.63;;;;;;;15.24;61.11;155276.94;5069296;28;20455;-82
2021/09/21 11:21:12;;;;;;;8.10;7.30;;;;;;;15.38;60.93;155310.72;5068224;28;20443;-75
2021/09/21 11:23:48;;;;;;;8.37;7.23;;;;;;;15.24;60.45;155275.63;5049509;28;20516;-75
2021/09/21 11:26:23;;;;;;;6.87;6.13;;;;;;;15.45;61.54;155330.19;5072053;28;20450;-74
2021/09/21 11:28:59;;;;;;;8.37;7.00;;;;;;;15.62;61.72;155373.16;5055083;28;20986;-75
2021/09/21 11:31:34;;;;;;;7.80;7.00;;;;;;;15.65;61.22;155380.91;5072843;28;20451;-75
2021/09/21 11:34:11;;;;;;;8.83;7.77;;;;;;;15.72;59.51;155400.47;5072744;28;20461;-75
2021/09/21 11:36:49;;;;;;;9.30;7.30;;;;;;;15.59;58.12;155366.66;5053146;28;20457;-75
2021/09/21 11:39:27;;;;;;;7.87;7.07;;;;;;;15.56;60.32;155357.56;5060807;28;20448;-75
2021/09/21 11:42:03;;;;;;;7.57;6.77;;;;;;;15.53;60.71;155349.75;5064603;28;20472;-74
2021/09/21 11:44:39;;;;;;;9.10;8.13;;;;;;;15.53;59.64;155351.06;5054377;28;20488;-75
2021/09/21 11:47:14;;;;;;;8.53;7.57;;;;;;;15.53;63.00;155351.06;5071336;28;20540;-75
2021/09/21 11:49:55;;;;;;;9.47;8.17;;;;;;;15.34;59.46;155301.59;5071053;28;20548;-75
2021/09/21 11:52:31;;;;;;;9.90;8.90;;;;;;;15.25;60.32;155278.19;5063257;28;20467;-75
2021/09/21 11:55:11;;;;;;;7.60;6.37;;;;;;;15.26;59.86;155280.81;5052440;28;20542;-75
2021/09/21 11:57:48;;;;;;;8.17;6.70;;;;;;;15.38;60.36;155311.97;5046954;28;20857;-82
2021/09/21 12:00:29;;;;;;;8.90;7.60;;;;;;;15.46;60.43;155332.81;5047329;28;20452;-82
2021/09/21 12:03:10;;;;;;;11.40;7.80;;;;;;;15.50;62.25;155341.94;5054564;28;20567;-82
2021/09/21 12:05:50;;;;;;;8.47;7.67;;;;;;;15.52;60.44;155347.13;5054063;28;20538;-82
2021/09/21 12:08:28;;;;;;;7.80;6.83;;;;;;;15.42;59.64;155322.41;5062115;28;20457;-82